Aviation Digital Data Service (ADDS)

Output produced by METARs form (1414 UTC 24 August 2019)
found at http://www.aviationweather.gov/metar/data/
 
Forecast for: PGRO (ROTA INTL AIRP , FM)
Text: PGRO 240533Z 2406/2506 12011KT P6SM VCSH SCT020 SCT080 OVC100
Forecast period: 0600 UTC 24 August 2019 to 0600 UTC 25 August 2019
Forecast type: FROM: standard forecast or significant change
Winds: from the ESE (120 degrees) at 13 MPH (11 knots; 5.7 m/s)
Visibility: 6 or more miles 10+ km)
Ceiling: 10000 feet AGL
Clouds: scattered clouds at 2000 feet AGL
scattered clouds at 8000 feet AGL
overcast cloud deck at 10000 feet AGL
Weather: VCSH  (showers in vicinity)